sensor_id;sensor_type;location;lat;lon;timestamp;P1;durP1;ratioP1;P2;durP2;ratioP2
10963;SDS011;5534;48.784;9.190;2023-11-19T00:02:20;1.23;;;0.60;;
10963;SDS011;5534;48.784;9.190;2023-11-19T00:04:47;0.70;;;0.70;;
10963;SDS011;5534;48.784;9.190;2023-11-19T00:07:13;0.80;;;0.80;;
10963;SDS011;5534;48.784;9.190;2023-11-19T00:09:39;0.80;;;0.80;;
10963;SDS011;5534;48.784;9.190;2023-11-19T00:12:06;1.00;;;0.90;;
10963;SDS011;5534;48.784;9.190;2023-11-19T00:14:33;0.83;;;0.70;;
10963;SDS011;5534;48.784;9.190;2023-11-19T00:16:59;0.50;;;0.50;;
10963;SDS011;5534;48.784;9.190;2023-11-19T00:19:25;0.63;;;0.63;;
10963;SDS011;5534;48.784;9.190;2023-11-19T00:21:51;1.00;;;0.60;;
10963;SDS011;5534;48.784;9.190;2023-11-19T00:24:18;0.90;;;0.80;;
10963;SDS011;5534;48.784;9.190;2023-11-19T00:26:44;0.73;;;0.70;;
10963;SDS011;5534;48.784;9.190;2023-11-19T00:29:10;0.60;;;0.53;;
10963;SDS011;5534;48.784;9.190;2023-11-19T00:31:35;1.10;;;0.63;;
10963;SDS011;5534;48.784;9.190;2023-11-19T00:34:02;0.73;;;0.70;;
10963;SDS011;5534;48.784;9.190;2023-11-19T00:36:27;0.80;;;0.70;;
10963;SDS011;5534;48.784;9.190;2023-11-19T00:38:54;0.97;;;0.63;;
10963;SDS011;5534;48.784;9.190;2023-11-19T00:41:20;0.93;;;0.80;;
10963;SDS011;5534;48.784;9.190;2023-11-19T00:43:45;1.63;;;0.90;;
10963;SDS011;5534;48.784;9.190;2023-11-19T00:46:11;2.83;;;1.33;;
10963;SDS011;5534;48.784;9.190;2023-11-19T00:48:38;1.43;;;0.97;;
10963;SDS011;5534;48.784;9.190;2023-11-19T00:51:05;1.30;;;0.87;;
10963;SDS011;5534;48.784;9.190;2023-11-19T00:53:31;1.13;;;1.03;;
10963;SDS011;5534;48.784;9.190;2023-11-19T00:55:57;1.03;;;0.67;;
10963;SDS011;5534;48.784;9.190;2023-11-19T00:58:23;1.50;;;0.60;;
10963;SDS011;5534;48.784;9.190;2023-11-19T01:00:49;0.90;;;0.60;;
10963;SDS011;5534;48.784;9.190;2023-11-19T01:03:14;1.00;;;0.60;;
10963;SDS011;5534;48.784;9.190;2023-11-19T01:05:43;0.70;;;0.60;;
10963;SDS011;5534;48.784;9.190;2023-11-19T01:08:12;1.37;;;1.17;;
10963;SDS011;5534;48.784;9.190;2023-11-19T01:10:37;1.03;;;0.93;;
10963;SDS011;5534;48.784;9.190;2023-11-19T01:13:03;0.90;;;0.80;;
10963;SDS011;5534;48.784;9.190;2023-11-19T01:15:31;0.93;;;0.93;;
10963;SDS011;5534;48.784;9.190;2023-11-19T01:17:57;1.10;;;0.83;;
10963;SDS011;5534;48.784;9.190;2023-11-19T01:20:23;1.10;;;1.00;;
10963;SDS011;5534;48.784;9.190;2023-11-19T01:22:49;1.33;;;1.00;;
10963;SDS011;5534;48.784;9.190;2023-11-19T01:25:15;0.60;;;0.60;;
10963;SDS011;5534;48.784;9.190;2023-11-19T01:27:41;1.00;;;0.60;;
10963;SDS011;5534;48.784;9.190;2023-11-19T01:30:07;0.70;;;0.60;;
10963;SDS011;5534;48.784;9.190;2023-11-19T01:32:40;2.47;;;1.00;;
10963;SDS011;5534;48.784;9.190;2023-11-19T01:35:05;1.47;;;1.00;;
10963;SDS011;5534;48.784;9.190;2023-11-19T01:37:40;1.97;;;1.43;;
10963;SDS011;5534;48.784;9.190;2023-11-19T01:40:06;2.00;;;1.10;;
10963;SDS011;5534;48.784;9.190;2023-11-19T01:42:39;1.20;;;1.00;;
10963;SDS011;5534;48.784;9.190;2023-11-19T01:45:06;1.13;;;0.70;;
10963;SDS011;5534;48.784;9.190;2023-11-19T01:47:34;1.20;;;1.03;;
10963;SDS011;5534;48.784;9.190;2023-11-19T01:50:01;1.33;;;1.00;;
10963;SDS011;5534;48.784;9.190;2023-11-19T01:52:32;1.10;;;1.00;;
10963;SDS011;5534;48.784;9.190;2023-11-19T01:55:00;0.80;;;0.70;;
10963;SDS011;5534;48.784;9.190;2023-11-19T01:57:26;1.20;;;1.10;;
10963;SDS011;5534;48.784;9.190;2023-11-19T01:59:52;1.43;;;1.20;;
10963;SDS011;5534;48.784;9.190;2023-11-19T02:02:19;0.70;;;0.70;;
10963;SDS011;5534;48.784;9.190;2023-11-19T02:04:49;1.17;;;0.93;;
10963;SDS011;5534;48.784;9.190;2023-11-19T02:07:15;0.63;;;0.63;;
10963;SDS011;5534;48.784;9.190;2023-11-19T02:09:43;1.77;;;0.80;;
10963;SDS011;5534;48.784;9.190;2023-11-19T02:12:09;1.03;;;0.80;;
10963;SDS011;5534;48.784;9.190;2023-11-19T02:14:37;0.57;;;0.57;;
10963;SDS011;5534;48.784;9.190;2023-11-19T02:17:02;1.07;;;0.63;;
10963;SDS011;5534;48.784;9.190;2023-11-19T02:19:29;1.20;;;0.83;;
10963;SDS011;5534;48.784;9.190;2023-11-19T02:21:54;1.10;;;0.73;;
10963;SDS011;5534;48.784;9.190;2023-11-19T02:24:21;0.80;;;0.70;;
10963;SDS011;5534;48.784;9.190;2023-11-19T02:27:14;1.07;;;0.70;;
10963;SDS011;5534;48.784;9.190;2023-11-19T02:29:41;0.60;;;0.50;;
10963;SDS011;5534;48.784;9.190;2023-11-19T02:32:07;0.43;;;0.30;;
10963;SDS011;5534;48.784;9.190;2023-11-19T02:34:34;0.37;;;0.37;;
10963;SDS011;5534;48.784;9.190;2023-11-19T02:37:00;1.07;;;0.97;;
10963;SDS011;5534;48.784;9.190;2023-11-19T02:39:26;1.53;;;0.93;;
10963;SDS011;5534;48.784;9.190;2023-11-19T02:41:52;0.90;;;0.90;;
10963;SDS011;5534;48.784;9.190;2023-11-19T02:44:18;1.33;;;0.80;;
10963;SDS011;5534;48.784;9.190;2023-11-19T02:46:43;0.80;;;0.53;;
10963;SDS011;5534;48.784;9.190;2023-11-19T02:49:09;0.63;;;0.50;;
10963;SDS011;5534;48.784;9.190;2023-11-19T02:51:35;0.73;;;0.53;;
10963;SDS011;5534;48.784;9.190;2023-11-19T02:54:01;0.70;;;0.60;;
10963;SDS011;5534;48.784;9.190;2023-11-19T02:56:32;1.77;;;0.77;;
10963;SDS011;5534;48.784;9.190;2023-11-19T02:59:01;0.50;;;0.50;;
10963;SDS011;5534;48.784;9.190;2023-11-19T03:01:39;0.80;;;0.80;;
10963;SDS011;5534;48.784;9.190;2023-11-19T03:04:08;0.93;;;0.77;;
10963;SDS011;5534;48.784;9.190;2023-11-19T03:06:37;2.00;;;0.90;;
10963;SDS011;5534;48.784;9.190;2023-11-19T03:09:03;2.53;;;1.40;;
10963;SDS011;5534;48.784;9.190;2023-11-19T03:11:35;0.70;;;0.70;;
10963;SDS011;5534;48.784;9.190;2023-11-19T03:14:00;0.80;;;0.80;;
10963;SDS011;5534;48.784;9.190;2023-11-19T03:16:28;0.67;;;0.67;;
10963;SDS011;5534;48.784;9.190;2023-11-19T03:18:54;1.30;;;1.07;;
10963;SDS011;5534;48.784;9.190;2023-11-19T03:21:26;1.20;;;0.50;;
10963;SDS011;5534;48.784;9.190;2023-11-19T03:24:00;0.50;;;0.50;;
10963;SDS011;5534;48.784;9.190;2023-11-19T03:26:26;1.23;;;0.80;;
10963;SDS011;5534;48.784;9.190;2023-11-19T03:28:52;0.30;;;0.30;;
10963;SDS011;5534;48.784;9.190;2023-11-19T03:31:19;0.47;;;0.40;;
10963;SDS011;5534;48.784;9.190;2023-11-19T03:33:45;0.40;;;0.33;;
10963;SDS011;5534;48.784;9.190;2023-11-19T03:36:11;2.77;;;0.60;;
10963;SDS011;5534;48.784;9.190;2023-11-19T03:38:38;1.03;;;0.93;;
10963;SDS011;5534;48.784;9.190;2023-11-19T03:41:10;0.50;;;0.50;;
10963;SDS011;5534;48.784;9.190;2023-11-19T03:43:37;0.27;;;0.27;;
10963;SDS011;5534;48.784;9.190;2023-11-19T03:46:04;0.53;;;0.40;;
10963;SDS011;5534;48.784;9.190;2023-11-19T03:48:40;0.70;;;0.53;;
10963;SDS011;5534;48.784;9.190;2023-11-19T03:51:06;0.20;;;0.20;;
10963;SDS011;5534;48.784;9.190;2023-11-19T03:53:31;0.40;;;0.40;;
10963;SDS011;5534;48.784;9.190;2023-11-19T03:55:57;0.30;;;0.30;;
10963;SDS011;5534;48.784;9.190;2023-11-19T03:58:23;0.40;;;0.40;;
10963;SDS011;5534;48.784;9.190;2023-11-19T04:00:49;0.20;;;0.20;;
10963;SDS011;5534;48.784;9.190;2023-11-19T04:03:15;0.20;;;0.20;;
10963;SDS011;5534;48.784;9.190;2023-11-19T04:05:41;0.35;;;0.30;;
10963;SDS011;5534;48.784;9.190;2023-11-19T04:08:06;0.20;;;0.20;;
10963;SDS011;5534;48.784;9.190;2023-11-19T04:10:32;0.20;;;0.20;;
10963;SDS011;5534;48.784;9.190;2023-11-19T04:12:58;0.30;;;0.30;;
10963;SDS011;5534;48.784;9.190;2023-11-19T04:15:24;0.20;;;0.20;;
10963;SDS011;5534;48.784;9.190;2023-11-19T04:17:49;0.30;;;0.30;;
10963;SDS011;5534;48.784;9.190;2023-11-19T04:20:15;0.30;;;0.30;;
10963;SDS011;5534;48.784;9.190;2023-11-19T04:22:41;0.20;;;0.20;;
10963;SDS011;5534;48.784;9.190;2023-11-19T04:25:07;0.20;;;0.20;;
10963;SDS011;5534;48.784;9.190;2023-11-19T04:27:34;1.40;;;0.30;;
10963;SDS011;5534;48.784;9.190;2023-11-19T04:30:00;0.30;;;0.30;;
10963;SDS011;5534;48.784;9.190;2023-11-19T04:32:27;0.23;;;0.23;;
10963;SDS011;5534;48.784;9.190;2023-11-19T04:34:54;0.10;;;0.10;;
10963;SDS011;5534;48.784;9.190;2023-11-19T04:37:19;0.20;;;0.20;;
10963;SDS011;5534;48.784;9.190;2023-11-19T04:39:45;0.20;;;0.20;;
10963;SDS011;5534;48.784;9.190;2023-11-19T04:42:13;0.40;;;0.30;;
10963;SDS011;5534;48.784;9.190;2023-11-19T04:44:42;0.20;;;0.20;;
10963;SDS011;5534;48.784;9.190;2023-11-19T04:47:09;0.20;;;0.20;;
10963;SDS011;5534;48.784;9.190;2023-11-19T04:49:39;0.30;;;0.30;;
10963;SDS011;5534;48.784;9.190;2023-11-19T04:52:07;0.20;;;0.20;;
10963;SDS011;5534;48.784;9.190;2023-11-19T04:54:33;0.20;;;0.20;;
10963;SDS011;5534;48.784;9.190;2023-11-19T04:56:59;0.10;;;0.10;;
10963;SDS011;5534;48.784;9.190;2023-11-19T04:59:25;0.20;;;0.20;;
10963;SDS011;5534;48.784;9.190;2023-11-19T05:01:52;0.30;;;0.30;;
10963;SDS011;5534;48.784;9.190;2023-11-19T05:04:18;0.20;;;0.20;;
10963;SDS011;5534;48.784;9.190;2023-11-19T05:06:44;0.20;;;0.20;;
10963;SDS011;5534;48.784;9.190;2023-11-19T05:09:09;0.20;;;0.20;;
10963;SDS011;5534;48.784;9.190;2023-11-19T05:11:38;0.30;;;0.30;;
10963;SDS011;5534;48.784;9.190;2023-11-19T05:14:04;0.20;;;0.20;;
10963;SDS011;5534;48.784;9.190;2023-11-19T05:16:30;0.20;;;0.20;;
10963;SDS011;5534;48.784;9.190;2023-11-19T05:18:56;0.10;;;0.10;;
10963;SDS011;5534;48.784;9.190;2023-11-19T05:21:22;0.20;;;0.20;;
10963;SDS011;5534;48.784;9.190;2023-11-19T05:23:49;0.13;;;0.13;;
10963;SDS011;5534;48.784;9.190;2023-11-19T05:26:20;0.10;;;0.10;;
10963;SDS011;5534;48.784;9.190;2023-11-19T05:28:47;0.77;;;0.33;;
10963;SDS011;5534;48.784;9.190;2023-11-19T05:31:13;0.20;;;0.20;;
10963;SDS011;5534;48.784;9.190;2023-11-19T05:33:39;0.20;;;0.20;;
10963;SDS011;5534;48.784;9.190;2023-11-19T05:36:05;0.20;;;0.20;;
10963;SDS011;5534;48.784;9.190;2023-11-19T05:38:33;0.20;;;0.20;;
10963;SDS011;5534;48.784;9.190;2023-11-19T05:41:02;0.10;;;0.10;;
10963;SDS011;5534;48.784;9.190;2023-11-19T05:43:30;0.53;;;0.20;;
10963;SDS011;5534;48.784;9.190;2023-11-19T05:45:56;0.20;;;0.20;;
10963;SDS011;5534;48.784;9.190;2023-11-19T05:48:22;0.10;;;0.10;;
10963;SDS011;5534;48.784;9.190;2023-11-19T05:50:48;0.20;;;0.20;;
10963;SDS011;5534;48.784;9.190;2023-11-19T05:53:15;0.10;;;0.10;;
10963;SDS011;5534;48.784;9.190;2023-11-19T05:55:41;0.17;;;0.17;;
10963;SDS011;5534;48.784;9.190;2023-11-19T05:58:36;0.30;;;0.30;;
10963;SDS011;5534;48.784;9.190;2023-11-19T06:01:02;0.20;;;0.20;;
10963;SDS011;5534;48.784;9.190;2023-11-19T06:03:29;0.30;;;0.30;;
10963;SDS011;5534;48.784;9.190;2023-11-19T06:05:55;0.30;;;0.27;;
10963;SDS011;5534;48.784;9.190;2023-11-19T06:08:21;0.30;;;0.30;;
10963;SDS011;5534;48.784;9.190;2023-11-19T06:10:46;0.20;;;0.20;;
10963;SDS011;5534;48.784;9.190;2023-11-19T06:13:15;0.17;;;0.17;;
10963;SDS011;5534;48.784;9.190;2023-11-19T06:15:43;0.20;;;0.20;;
10963;SDS011;5534;48.784;9.190;2023-11-19T06:18:09;0.10;;;0.10;;
10963;SDS011;5534;48.784;9.190;2023-11-19T06:20:37;0.20;;;0.20;;
10963;SDS011;5534;48.784;9.190;2023-11-19T06:23:03;0.10;;;0.10;;
10963;SDS011;5534;48.784;9.190;2023-11-19T06:25:29;0.20;;;0.20;;
10963;SDS011;5534;48.784;9.190;2023-11-19T06:27:54;0.10;;;0.10;;
10963;SDS011;5534;48.784;9.190;2023-11-19T06:30:21;0.30;;;0.30;;
10963;SDS011;5534;48.784;9.190;2023-11-19T06:32:47;0.20;;;0.20;;
10963;SDS011;5534;48.784;9.190;2023-11-19T06:35:13;0.20;;;0.20;;
10963;SDS011;5534;48.784;9.190;2023-11-19T06:37:39;0.20;;;0.20;;
10963;SDS011;5534;48.784;9.190;2023-11-19T06:40:05;0.10;;;0.10;;
10963;SDS011;5534;48.784;9.190;2023-11-19T06:42:32;0.20;;;0.20;;
10963;SDS011;5534;48.784;9.190;2023-11-19T06:44:58;0.10;;;0.10;;
10963;SDS011;5534;48.784;9.190;2023-11-19T06:47:27;0.10;;;0.10;;
10963;SDS011;5534;48.784;9.190;2023-11-19T06:49:53;0.10;;;0.10;;
10963;SDS011;5534;48.784;9.190;2023-11-19T06:52:20;0.17;;;0.17;;
10963;SDS011;5534;48.784;9.190;2023-11-19T06:54:46;0.13;;;0.13;;
10963;SDS011;5534;48.784;9.190;2023-11-19T06:57:12;0.20;;;0.20;;
10963;SDS011;5534;48.784;9.190;2023-11-19T06:59:38;0.20;;;0.20;;
10963;SDS011;5534;48.784;9.190;2023-11-19T07:02:04;0.22;;;0.22;;
10963;SDS011;5534;48.784;9.190;2023-11-19T07:04:32;0.13;;;0.13;;
10963;SDS011;5534;48.784;9.190;2023-11-19T07:06:58;0.20;;;0.20;;
10963;SDS011;5534;48.784;9.190;2023-11-19T07:09:25;0.30;;;0.30;;
10963;SDS011;5534;48.784;9.190;2023-11-19T07:11:51;0.20;;;0.20;;
10963;SDS011;5534;48.784;9.190;2023-11-19T07:14:17;0.23;;;0.23;;
10963;SDS011;5534;48.784;9.190;2023-11-19T07:16:43;0.20;;;0.20;;
10963;SDS011;5534;48.784;9.190;2023-11-19T07:19:11;0.27;;;0.27;;
10963;SDS011;5534;48.784;9.190;2023-11-19T07:21:37;0.20;;;0.20;;
10963;SDS011;5534;48.784;9.190;2023-11-19T07:24:11;0.30;;;0.30;;
10963;SDS011;5534;48.784;9.190;2023-11-19T07:26:42;0.30;;;0.30;;
10963;SDS011;5534;48.784;9.190;2023-11-19T07:29:09;0.10;;;0.10;;
10963;SDS011;5534;48.784;9.190;2023-11-19T07:31:34;0.20;;;0.20;;
10963;SDS011;5534;48.784;9.190;2023-11-19T07:34:00;0.20;;;0.20;;
10963;SDS011;5534;48.784;9.190;2023-11-19T07:36:26;0.20;;;0.20;;
10963;SDS011;5534;48.784;9.190;2023-11-19T07:38:52;0.20;;;0.20;;
10963;SDS011;5534;48.784;9.190;2023-11-19T07:41:18;0.20;;;0.20;;
10963;SDS011;5534;48.784;9.190;2023-11-19T07:43:45;0.30;;;0.30;;
10963;SDS011;5534;48.784;9.190;2023-11-19T07:46:16;0.30;;;0.30;;
10963;SDS011;5534;48.784;9.190;2023-11-19T07:48:44;0.20;;;0.20;;
10963;SDS011;5534;48.784;9.190;2023-11-19T07:51:12;0.30;;;0.30;;
10963;SDS011;5534;48.784;9.190;2023-11-19T07:53:39;0.20;;;0.20;;
10963;SDS011;5534;48.784;9.190;2023-11-19T07:56:08;0.30;;;0.30;;
10963;SDS011;5534;48.784;9.190;2023-11-19T07:58:36;0.17;;;0.17;;
10963;SDS011;5534;48.784;9.190;2023-11-19T08:01:02;0.23;;;0.23;;
10963;SDS011;5534;48.784;9.190;2023-11-19T08:03:28;0.20;;;0.20;;
10963;SDS011;5534;48.784;9.190;2023-11-19T08:05:56;0.20;;;0.20;;
10963;SDS011;5534;48.784;9.190;2023-11-19T08:08:22;0.30;;;0.30;;
10963;SDS011;5534;48.784;9.190;2023-11-19T08:10:48;0.20;;;0.20;;
10963;SDS011;5534;48.784;9.190;2023-11-19T08:13:14;0.10;;;0.10;;
10963;SDS011;5534;48.784;9.190;2023-11-19T08:15:40;0.30;;;0.30;;
10963;SDS011;5534;48.784;9.190;2023-11-19T08:18:06;0.20;;;0.20;;
10963;SDS011;5534;48.784;9.190;2023-11-19T08:20:32;0.30;;;0.30;;
10963;SDS011;5534;48.784;9.190;2023-11-19T08:22:58;0.20;;;0.20;;
10963;SDS011;5534;48.784;9.190;2023-11-19T08:25:24;0.32;;;0.30;;
10963;SDS011;5534;48.784;9.190;2023-11-19T08:27:50;0.20;;;0.20;;
10963;SDS011;5534;48.784;9.190;2023-11-19T08:30:16;0.73;;;0.60;;
10963;SDS011;5534;48.784;9.190;2023-11-19T08:32:41;0.20;;;0.20;;
10963;SDS011;5534;48.784;9.190;2023-11-19T08:35:07;0.30;;;0.30;;
10963;SDS011;5534;48.784;9.190;2023-11-19T08:37:34;0.10;;;0.10;;
10963;SDS011;5534;48.784;9.190;2023-11-19T08:40:01;0.20;;;0.20;;
10963;SDS011;5534;48.784;9.190;2023-11-19T08:42:28;0.40;;;0.40;;
10963;SDS011;5534;48.784;9.190;2023-11-19T08:44:54;0.20;;;0.20;;
10963;SDS011;5534;48.784;9.190;2023-11-19T08:47:20;0.50;;;0.40;;
10963;SDS011;5534;48.784;9.190;2023-11-19T08:49:47;0.30;;;0.30;;
10963;SDS011;5534;48.784;9.190;2023-11-19T08:52:17;0.20;;;0.20;;
10963;SDS011;5534;48.784;9.190;2023-11-19T08:54:43;0.50;;;0.50;;
10963;SDS011;5534;48.784;9.190;2023-11-19T08:57:08;0.20;;;0.20;;
10963;SDS011;5534;48.784;9.190;2023-11-19T08:59:34;0.40;;;0.40;;
10963;SDS011;5534;48.784;9.190;2023-11-19T09:02:00;0.10;;;0.10;;
10963;SDS011;5534;48.784;9.190;2023-11-19T09:04:27;0.20;;;0.20;;
10963;SDS011;5534;48.784;9.190;2023-11-19T09:06:52;0.20;;;0.20;;
10963;SDS011;5534;48.784;9.190;2023-11-19T09:09:18;0.20;;;0.20;;
10963;SDS011;5534;48.784;9.190;2023-11-19T09:11:44;1.17;;;0.40;;
10963;SDS011;5534;48.784;9.190;2023-11-19T09:14:10;0.73;;;0.37;;
10963;SDS011;5534;48.784;9.190;2023-11-19T09:16:35;0.65;;;0.40;;
10963;SDS011;5534;48.784;9.190;2023-11-19T09:19:01;0.35;;;0.32;;
10963;SDS011;5534;48.784;9.190;2023-11-19T09:21:28;0.52;;;0.30;;
10963;SDS011;5534;48.784;9.190;2023-11-19T09:23:57;0.20;;;0.20;;
10963;SDS011;5534;48.784;9.190;2023-11-19T09:26:23;0.20;;;0.20;;
10963;SDS011;5534;48.784;9.190;2023-11-19T09:28:49;0.35;;;0.35;;
10963;SDS011;5534;48.784;9.190;2023-11-19T09:31:15;0.30;;;0.30;;
10963;SDS011;5534;48.784;9.190;2023-11-19T09:33:41;0.43;;;0.43;;
10963;SDS011;5534;48.784;9.190;2023-11-19T09:36:07;0.28;;;0.28;;
10963;SDS011;5534;48.784;9.190;2023-11-19T09:38:33;0.20;;;0.20;;
10963;SDS011;5534;48.784;9.190;2023-11-19T09:41:04;0.50;;;0.40;;
10963;SDS011;5534;48.784;9.190;2023-11-19T09:43:34;0.30;;;0.20;;
10963;SDS011;5534;48.784;9.190;2023-11-19T09:46:04;0.20;;;0.20;;
10963;SDS011;5534;48.784;9.190;2023-11-19T09:48:34;0.20;;;0.20;;
10963;SDS011;5534;48.784;9.190;2023-11-19T09:51:02;0.60;;;0.30;;
10963;SDS011;5534;48.784;9.190;2023-11-19T09:53:29;0.10;;;0.10;;
10963;SDS011;5534;48.784;9.190;2023-11-19T09:55:55;0.13;;;0.13;;
10963;SDS011;5534;48.784;9.190;2023-11-19T09:58:21;0.20;;;0.20;;
10963;SDS011;5534;48.784;9.190;2023-11-19T10:00:47;0.10;;;0.10;;
10963;SDS011;5534;48.784;9.190;2023-11-19T10:03:14;0.20;;;0.20;;
10963;SDS011;5534;48.784;9.190;2023-11-19T10:05:41;0.32;;;0.32;;
10963;SDS011;5534;48.784;9.190;2023-11-19T10:08:07;1.40;;;0.43;;
10963;SDS011;5534;48.784;9.190;2023-11-19T10:10:39;0.20;;;0.20;;
10963;SDS011;5534;48.784;9.190;2023-11-19T10:13:05;0.30;;;0.30;;
10963;SDS011;5534;48.784;9.190;2023-11-19T10:15:35;0.25;;;0.25;;
10963;SDS011;5534;48.784;9.190;2023-11-19T10:18:02;0.20;;;0.20;;
10963;SDS011;5534;48.784;9.190;2023-11-19T10:20:37;0.28;;;0.28;;
10963;SDS011;5534;48.784;9.190;2023-11-19T10:23:06;0.20;;;0.20;;
10963;SDS011;5534;48.784;9.190;2023-11-19T10:25:32;0.20;;;0.20;;
10963;SDS011;5534;48.784;9.190;2023-11-19T10:27:59;0.38;;;0.38;;
10963;SDS011;5534;48.784;9.190;2023-11-19T10:30:28;0.50;;;0.40;;
10963;SDS011;5534;48.784;9.190;2023-11-19T10:33:08;0.40;;;0.40;;
10963;SDS011;5534;48.784;9.190;2023-11-19T10:35:36;0.40;;;0.30;;
10963;SDS011;5534;48.784;9.190;2023-11-19T10:38:17;0.20;;;0.20;;
10963;SDS011;5534;48.784;9.190;2023-11-19T10:40:43;0.30;;;0.30;;
10963;SDS011;5534;48.784;9.190;2023-11-19T10:43:09;0.32;;;0.32;;
10963;SDS011;5534;48.784;9.190;2023-11-19T10:45:38;0.20;;;0.20;;
10963;SDS011;5534;48.784;9.190;2023-11-19T10:48:05;0.85;;;0.32;;
10963;SDS011;5534;48.784;9.190;2023-11-19T10:50:35;0.98;;;0.60;;
10963;SDS011;5534;48.784;9.190;2023-11-19T10:53:03;0.55;;;0.40;;
10963;SDS011;5534;48.784;9.190;2023-11-19T10:55:30;0.30;;;0.30;;
10963;SDS011;5534;48.784;9.190;2023-11-19T10:57:58;0.38;;;0.38;;
10963;SDS011;5534;48.784;9.190;2023-11-19T11:00:37;0.13;;;0.13;;
10963;SDS011;5534;48.784;9.190;2023-11-19T11:03:15;0.57;;;0.28;;
10963;SDS011;5534;48.784;9.190;2023-11-19T11:05:49;2.90;;;0.45;;
10963;SDS011;5534;48.784;9.190;2023-11-19T11:08:17;0.20;;;0.20;;
10963;SDS011;5534;48.784;9.190;2023-11-19T11:10:44;0.55;;;0.40;;
10963;SDS011;5534;48.784;9.190;2023-11-19T11:13:10;0.28;;;0.28;;
10963;SDS011;5534;48.784;9.190;2023-11-19T11:15:38;0.20;;;0.20;;
10963;SDS011;5534;48.784;9.190;2023-11-19T11:18:07;0.35;;;0.35;;
10963;SDS011;5534;48.784;9.190;2023-11-19T11:20:34;0.22;;;0.22;;
10963;SDS011;5534;48.784;9.190;2023-11-19T11:28:48;0.20;;;0.20;;
10963;SDS011;5534;48.784;9.190;2023-11-19T11:34:10;0.20;;;0.20;;
10963;SDS011;5534;48.784;9.190;2023-11-19T11:37:18;0.20;;;0.20;;
10963;SDS011;5534;48.784;9.190;2023-11-19T11:39:50;0.30;;;0.30;;
10963;SDS011;5534;48.784;9.190;2023-11-19T11:45:11;0.30;;;0.30;;
10963;SDS011;5534;48.784;9.190;2023-11-19T11:50:17;0.40;;;0.40;;
10963;SDS011;5534;48.784;9.190;2023-11-19T11:58:11;0.75;;;0.50;;
10963;SDS011;5534;48.784;9.190;2023-11-19T12:00:40;0.50;;;0.20;;
10963;SDS011;5534;48.784;9.190;2023-11-19T12:03:09;0.65;;;0.40;;
10963;SDS011;5534;48.784;9.190;2023-11-19T12:05:44;0.30;;;0.30;;
10963;SDS011;5534;48.784;9.190;2023-11-19T12:08:14;1.30;;;0.60;;
10963;SDS011;5534;48.784;9.190;2023-11-19T12:13:12;0.30;;;0.30;;
10963;SDS011;5534;48.784;9.190;2023-11-19T12:16:23;0.28;;;0.28;;
10963;SDS011;5534;48.784;9.190;2023-11-19T12:18:28;0.20;;;0.20;;
10963;SDS011;5534;48.784;9.190;2023-11-19T12:20:55;0.40;;;0.30;;
10963;SDS011;5534;48.784;9.190;2023-11-19T12:23:21;0.30;;;0.30;;
10963;SDS011;5534;48.784;9.190;2023-11-19T12:25:48;0.45;;;0.30;;
10963;SDS011;5534;48.784;9.190;2023-11-19T12:28:15;0.30;;;0.20;;
10963;SDS011;5534;48.784;9.190;2023-11-19T12:30:43;0.25;;;0.25;;
10963;SDS011;5534;48.784;9.190;2023-11-19T12:33:13;0.32;;;0.20;;
10963;SDS011;5534;48.784;9.190;2023-11-19T12:35:40;0.20;;;0.20;;
10963;SDS011;5534;48.784;9.190;2023-11-19T12:38:07;0.38;;;0.38;;
10963;SDS011;5534;48.784;9.190;2023-11-19T12:40:33;0.30;;;0.30;;
10963;SDS011;5534;48.784;9.190;2023-11-19T12:42:59;0.30;;;0.30;;
10963;SDS011;5534;48.784;9.190;2023-11-19T12:45:34;0.28;;;0.20;;
10963;SDS011;5534;48.784;9.190;2023-11-19T12:48:04;0.30;;;0.30;;
10963;SDS011;5534;48.784;9.190;2023-11-19T12:50:39;0.30;;;0.30;;
10963;SDS011;5534;48.784;9.190;2023-11-19T12:53:19;0.38;;;0.30;;
10963;SDS011;5534;48.784;9.190;2023-11-19T12:55:46;0.30;;;0.30;;
10963;SDS011;5534;48.784;9.190;2023-11-19T13:01:17;0.55;;;0.30;;
10963;SDS011;5534;48.784;9.190;2023-11-19T13:03:44;0.35;;;0.35;;
10963;SDS011;5534;48.784;9.190;2023-11-19T13:06:12;0.22;;;0.22;;
10963;SDS011;5534;48.784;9.190;2023-11-19T13:08:49;0.20;;;0.20;;
10963;SDS011;5534;48.784;9.190;2023-11-19T13:11:33;0.20;;;0.20;;
10963;SDS011;5534;48.784;9.190;2023-11-19T13:14:06;0.20;;;0.20;;
10963;SDS011;5534;48.784;9.190;2023-11-19T13:16:37;0.20;;;0.20;;
10963;SDS011;5534;48.784;9.190;2023-11-19T13:19:03;0.45;;;0.38;;
10963;SDS011;5534;48.784;9.190;2023-11-19T13:21:30;0.13;;;0.13;;
10963;SDS011;5534;48.784;9.190;2023-11-19T13:23:56;0.20;;;0.20;;
10963;SDS011;5534;48.784;9.190;2023-11-19T13:26:22;0.30;;;0.30;;
10963;SDS011;5534;48.784;9.190;2023-11-19T13:28:48;0.22;;;0.22;;
10963;SDS011;5534;48.784;9.190;2023-11-19T13:31:14;0.17;;;0.17;;
10963;SDS011;5534;48.784;9.190;2023-11-19T13:33:40;0.20;;;0.20;;
10963;SDS011;5534;48.784;9.190;2023-11-19T13:36:06;0.22;;;0.22;;
10963;SDS011;5534;48.784;9.190;2023-11-19T13:38:36;0.20;;;0.20;;
10963;SDS011;5534;48.784;9.190;2023-11-19T13:41:05;0.20;;;0.20;;
10963;SDS011;5534;48.784;9.190;2023-11-19T13:43:31;0.25;;;0.25;;
10963;SDS011;5534;48.784;9.190;2023-11-19T13:45:57;0.20;;;0.20;;
10963;SDS011;5534;48.784;9.190;2023-11-19T13:48:24;1.27;;;0.30;;
10963;SDS011;5534;48.784;9.190;2023-11-19T13:50:51;0.50;;;0.50;;
10963;SDS011;5534;48.784;9.190;2023-11-19T13:53:17;0.60;;;0.38;;
10963;SDS011;5534;48.784;9.190;2023-11-19T13:55:43;0.47;;;0.20;;
10963;SDS011;5534;48.784;9.190;2023-11-19T13:58:09;0.30;;;0.30;;
10963;SDS011;5534;48.784;9.190;2023-11-19T14:00:39;0.63;;;0.30;;
10963;SDS011;5534;48.784;9.190;2023-11-19T14:03:07;0.65;;;0.30;;
10963;SDS011;5534;48.784;9.190;2023-11-19T14:05:33;0.20;;;0.20;;
10963;SDS011;5534;48.784;9.190;2023-11-19T14:07:58;0.30;;;0.30;;
10963;SDS011;5534;48.784;9.190;2023-11-19T14:10:24;0.52;;;0.40;;
10963;SDS011;5534;48.784;9.190;2023-11-19T14:12:50;0.28;;;0.28;;
10963;SDS011;5534;48.784;9.190;2023-11-19T14:15:16;0.20;;;0.20;;
10963;SDS011;5534;48.784;9.190;2023-11-19T14:17:44;0.65;;;0.45;;
10963;SDS011;5534;48.784;9.190;2023-11-19T14:20:10;0.68;;;0.20;;
10963;SDS011;5534;48.784;9.190;2023-11-19T14:22:43;0.55;;;0.40;;
10963;SDS011;5534;48.784;9.190;2023-11-19T14:25:09;0.40;;;0.40;;
10963;SDS011;5534;48.784;9.190;2023-11-19T14:27:36;0.57;;;0.28;;
10963;SDS011;5534;48.784;9.190;2023-11-19T14:30:04;0.47;;;0.32;;
10963;SDS011;5534;48.784;9.190;2023-11-19T14:32:31;0.55;;;0.40;;
10963;SDS011;5534;48.784;9.190;2023-11-19T14:34:57;0.40;;;0.40;;
10963;SDS011;5534;48.784;9.190;2023-11-19T14:37:22;0.30;;;0.30;;
10963;SDS011;5534;48.784;9.190;2023-11-19T14:39:48;0.28;;;0.28;;
10963;SDS011;5534;48.784;9.190;2023-11-19T14:42:16;0.22;;;0.22;;
10963;SDS011;5534;48.784;9.190;2023-11-19T14:44:42;1.23;;;0.40;;
10963;SDS011;5534;48.784;9.190;2023-11-19T14:47:08;0.57;;;0.43;;
10963;SDS011;5534;48.784;9.190;2023-11-19T14:49:34;0.30;;;0.30;;
10963;SDS011;5534;48.784;9.190;2023-11-19T14:52:00;0.60;;;0.50;;
10963;SDS011;5534;48.784;9.190;2023-11-19T14:54:26;0.47;;;0.47;;
10963;SDS011;5534;48.784;9.190;2023-11-19T14:56:52;0.20;;;0.20;;
10963;SDS011;5534;48.784;9.190;2023-11-19T14:59:24;0.40;;;0.40;;
10963;SDS011;5534;48.784;9.190;2023-11-19T15:01:50;0.73;;;0.47;;
10963;SDS011;5534;48.784;9.190;2023-11-19T15:04:15;0.45;;;0.40;;
10963;SDS011;5534;48.784;9.190;2023-11-19T15:06:42;1.70;;;0.65;;
10963;SDS011;5534;48.784;9.190;2023-11-19T15:09:07;0.32;;;0.30;;
10963;SDS011;5534;48.784;9.190;2023-11-19T15:11:34;0.70;;;0.50;;
10963;SDS011;5534;48.784;9.190;2023-11-19T15:14:00;0.40;;;0.40;;
10963;SDS011;5534;48.784;9.190;2023-11-19T15:16:26;0.28;;;0.28;;
10963;SDS011;5534;48.784;9.190;2023-11-19T15:18:57;0.45;;;0.28;;
10963;SDS011;5534;48.784;9.190;2023-11-19T15:21:28;0.20;;;0.20;;
10963;SDS011;5534;48.784;9.190;2023-11-19T15:23:57;0.30;;;0.30;;
10963;SDS011;5534;48.784;9.190;2023-11-19T15:26:23;0.75;;;0.32;;
10963;SDS011;5534;48.784;9.190;2023-11-19T15:28:48;3.65;;;2.13;;